sensor_id;sensor_type;location;lat;lon;timestamp;pressure;altitude;pressure_sealevel;temperature
65316;BMP280;51920;53.952;10.292;2022-12-07T00:02:14;100625.84;;;2.61
65316;BMP280;51920;53.952;10.292;2022-12-07T00:04:39;100624.91;;;2.57
65316;BMP280;51920;53.952;10.292;2022-12-07T00:07:05;100619.88;;;2.55
65316;BMP280;51920;53.952;10.292;2022-12-07T00:09:30;100623.53;;;2.50
65316;BMP280;51920;53.952;10.292;2022-12-07T00:11:55;100627.28;;;2.49
65316;BMP280;51920;53.952;10.292;2022-12-07T00:14:21;100625.25;;;2.46
65316;BMP280;51920;53.952;10.292;2022-12-07T00:16:49;100628.38;;;2.48
65316;BMP280;51920;53.952;10.292;2022-12-07T00:19:14;100618.66;;;2.44
65316;BMP280;51920;53.952;10.292;2022-12-07T00:21:40;100616.31;;;2.42
65316;BMP280;51920;53.952;10.292;2022-12-07T00:24:06;100607.66;;;2.45
65316;BMP280;51920;53.952;10.292;2022-12-07T00:26:36;100615.00;;;2.57
65316;BMP280;51920;53.952;10.292;2022-12-07T00:29:12;100610.63;;;2.53
65316;BMP280;51920;53.952;10.292;2022-12-07T00:31:38;100600.72;;;2.53
65316;BMP280;51920;53.952;10.292;2022-12-07T00:34:14;100594.59;;;2.53
65316;BMP280;51920;53.952;10.292;2022-12-07T00:36:40;100589.09;;;2.49
65316;BMP280;51920;53.952;10.292;2022-12-07T00:39:05;100590.78;;;2.54
65316;BMP280;51920;53.952;10.292;2022-12-07T00:41:31;100585.44;;;2.54
65316;BMP280;51920;53.952;10.292;2022-12-07T00:43:57;100576.31;;;2.55
65316;BMP280;51920;53.952;10.292;2022-12-07T00:46:23;100579.63;;;2.52
65316;BMP280;51920;53.952;10.292;2022-12-07T00:48:49;100561.59;;;2.40
65316;BMP280;51920;53.952;10.292;2022-12-07T00:51:16;100579.19;;;2.49
65316;BMP280;51920;53.952;10.292;2022-12-07T00:53:42;100583.09;;;2.52
65316;BMP280;51920;53.952;10.292;2022-12-07T00:56:08;100582.31;;;2.52
65316;BMP280;51920;53.952;10.292;2022-12-07T00:58:34;100571.28;;;2.53
65316;BMP280;51920;53.952;10.292;2022-12-07T01:01:00;100575.69;;;2.58
65316;BMP280;51920;53.952;10.292;2022-12-07T01:03:27;100571.91;;;2.59
65316;BMP280;51920;53.952;10.292;2022-12-07T01:05:54;100563.88;;;2.59
65316;BMP280;51920;53.952;10.292;2022-12-07T01:08:20;100554.13;;;2.63
65316;BMP280;51920;53.952;10.292;2022-12-07T01:10:46;100553.88;;;2.68
65316;BMP280;51920;53.952;10.292;2022-12-07T01:13:11;100563.94;;;2.71
65316;BMP280;51920;53.952;10.292;2022-12-07T01:15:41;100558.09;;;2.78
65316;BMP280;51920;53.952;10.292;2022-12-07T01:18:07;100559.00;;;2.82
65316;BMP280;51920;53.952;10.292;2022-12-07T01:20:32;100545.97;;;2.80
65316;BMP280;51920;53.952;10.292;2022-12-07T01:22:58;100552.38;;;2.88
65316;BMP280;51920;53.952;10.292;2022-12-07T01:25:23;100538.75;;;2.81
65316;BMP280;51920;53.952;10.292;2022-12-07T01:27:48;100550.63;;;2.92
65316;BMP280;51920;53.952;10.292;2022-12-07T01:30:14;100550.75;;;2.96
65316;BMP280;51920;53.952;10.292;2022-12-07T01:32:39;100548.06;;;2.96
65316;BMP280;51920;53.952;10.292;2022-12-07T01:35:05;100549.19;;;2.95
65316;BMP280;51920;53.952;10.292;2022-12-07T01:37:37;100552.09;;;3.02
65316;BMP280;51920;53.952;10.292;2022-12-07T01:40:07;100554.44;;;3.03
65316;BMP280;51920;53.952;10.292;2022-12-07T01:42:33;100544.63;;;2.95
65316;BMP280;51920;53.952;10.292;2022-12-07T01:45:39;100557.31;;;2.98
65316;BMP280;51920;53.952;10.292;2022-12-07T01:48:05;100554.63;;;2.98
65316;BMP280;51920;53.952;10.292;2022-12-07T01:50:32;100547.41;;;2.99
65316;BMP280;51920;53.952;10.292;2022-12-07T01:52:59;100548.31;;;3.03
65316;BMP280;51920;53.952;10.292;2022-12-07T01:55:26;100546.28;;;3.00
65316;BMP280;51920;53.952;10.292;2022-12-07T01:57:52;100540.06;;;2.96
65316;BMP280;51920;53.952;10.292;2022-12-07T02:00:19;100542.06;;;2.99
65316;BMP280;51920;53.952;10.292;2022-12-07T02:02:51;100538.16;;;2.96
65316;BMP280;51920;53.952;10.292;2022-12-07T02:05:18;100546.72;;;3.02
65316;BMP280;51920;53.952;10.292;2022-12-07T02:07:46;100546.97;;;2.97
65316;BMP280;51920;53.952;10.292;2022-12-07T02:10:18;100542.19;;;3.02
65316;BMP280;51920;53.952;10.292;2022-12-07T02:12:46;100535.25;;;3.01
65316;BMP280;51920;53.952;10.292;2022-12-07T02:15:12;100541.38;;;3.02
65316;BMP280;51920;53.952;10.292;2022-12-07T02:17:49;100537.16;;;3.01
65316;BMP280;51920;53.952;10.292;2022-12-07T02:20:40;100532.03;;;2.96
65316;BMP280;51920;53.952;10.292;2022-12-07T02:23:26;100528.50;;;3.04
65316;BMP280;51920;53.952;10.292;2022-12-07T02:29:14;100533.16;;;3.07
65316;BMP280;51920;53.952;10.292;2022-12-07T02:31:21;100518.88;;;3.03
65316;BMP280;51920;53.952;10.292;2022-12-07T02:34:00;100529.41;;;3.08
65316;BMP280;51920;53.952;10.292;2022-12-07T02:36:33;100517.19;;;2.98
65316;BMP280;51920;53.952;10.292;2022-12-07T02:39:14;100524.03;;;3.08
65316;BMP280;51920;53.952;10.292;2022-12-07T02:41:51;100526.69;;;2.96
65316;BMP280;51920;53.952;10.292;2022-12-07T02:44:20;100523.28;;;2.86
65316;BMP280;51920;53.952;10.292;2022-12-07T02:47:09;100522.03;;;2.84
65316;BMP280;51920;53.952;10.292;2022-12-07T02:49:38;100519.66;;;2.82
65316;BMP280;51920;53.952;10.292;2022-12-07T02:52:04;100526.31;;;2.76
65316;BMP280;51920;53.952;10.292;2022-12-07T02:54:29;100537.94;;;2.80
65316;BMP280;51920;53.952;10.292;2022-12-07T03:11:00;100526.66;;;2.75
65316;BMP280;51920;53.952;10.292;2022-12-07T03:16:03;100531.22;;;2.74
65316;BMP280;51920;53.952;10.292;2022-12-07T03:18:34;100540.34;;;2.73
65316;BMP280;51920;53.952;10.292;2022-12-07T03:21:06;100532.19;;;2.69
65316;BMP280;51920;53.952;10.292;2022-12-07T03:23:35;100547.75;;;2.67
65316;BMP280;51920;53.952;10.292;2022-12-07T03:26:04;100541.63;;;2.67
65316;BMP280;51920;53.952;10.292;2022-12-07T03:28:34;100542.41;;;2.67
65316;BMP280;51920;53.952;10.292;2022-12-07T03:31:34;100537.78;;;2.56
65316;BMP280;51920;53.952;10.292;2022-12-07T03:34:07;100534.81;;;2.48
65316;BMP280;51920;53.952;10.292;2022-12-07T03:36:58;100535.16;;;2.47
65316;BMP280;51920;53.952;10.292;2022-12-07T03:42:02;100535.94;;;2.47
65316;BMP280;51920;53.952;10.292;2022-12-07T03:44:29;100538.34;;;2.40
65316;BMP280;51920;53.952;10.292;2022-12-07T03:47:03;100534.25;;;2.34
65316;BMP280;51920;53.952;10.292;2022-12-07T03:49:42;100536.50;;;2.32
65316;BMP280;51920;53.952;10.292;2022-12-07T03:52:12;100540.28;;;2.31
65316;BMP280;51920;53.952;10.292;2022-12-07T03:54:57;100544.69;;;2.27
65316;BMP280;51920;53.952;10.292;2022-12-07T03:57:26;100546.91;;;2.25
65316;BMP280;51920;53.952;10.292;2022-12-07T03:59:54;100544.75;;;2.09
65316;BMP280;51920;53.952;10.292;2022-12-07T04:02:21;100550.22;;;2.13
65316;BMP280;51920;53.952;10.292;2022-12-07T04:04:47;100546.94;;;2.16
65316;BMP280;51920;53.952;10.292;2022-12-07T04:07:12;100549.00;;;2.10
65316;BMP280;51920;53.952;10.292;2022-12-07T04:09:38;100555.09;;;2.20
65316;BMP280;51920;53.952;10.292;2022-12-07T04:12:03;100552.28;;;2.16
65316;BMP280;51920;53.952;10.292;2022-12-07T04:14:29;100547.75;;;2.08
65316;BMP280;51920;53.952;10.292;2022-12-07T04:16:56;100546.94;;;2.07
65316;BMP280;51920;53.952;10.292;2022-12-07T04:19:24;100531.28;;;1.97
65316;BMP280;51920;53.952;10.292;2022-12-07T04:21:50;100540.06;;;1.98
65316;BMP280;51920;53.952;10.292;2022-12-07T04:24:15;100544.66;;;1.97
65316;BMP280;51920;53.952;10.292;2022-12-07T04:26:41;100545.59;;;1.92
65316;BMP280;51920;53.952;10.292;2022-12-07T04:29:08;100547.69;;;1.87
65316;BMP280;51920;53.952;10.292;2022-12-07T04:31:34;100541.22;;;1.88
65316;BMP280;51920;53.952;10.292;2022-12-07T04:34:00;100541.06;;;1.84
65316;BMP280;51920;53.952;10.292;2022-12-07T04:36:26;100549.72;;;1.81
65316;BMP280;51920;53.952;10.292;2022-12-07T04:38:53;100553.19;;;1.73
65316;BMP280;51920;53.952;10.292;2022-12-07T04:41:19;100550.84;;;1.71
65316;BMP280;51920;53.952;10.292;2022-12-07T04:43:53;100557.41;;;1.74
65316;BMP280;51920;53.952;10.292;2022-12-07T04:46:19;100550.22;;;1.66
65316;BMP280;51920;53.952;10.292;2022-12-07T04:48:44;100557.59;;;1.69
65316;BMP280;51920;53.952;10.292;2022-12-07T04:51:09;100552.88;;;1.66
65316;BMP280;51920;53.952;10.292;2022-12-07T04:53:35;100547.25;;;1.59
65316;BMP280;51920;53.952;10.292;2022-12-07T04:56:00;100552.41;;;1.64
65316;BMP280;51920;53.952;10.292;2022-12-07T04:58:26;100549.75;;;1.64
65316;BMP280;51920;53.952;10.292;2022-12-07T05:00:54;100553.34;;;1.59
65316;BMP280;51920;53.952;10.292;2022-12-07T05:03:19;100553.66;;;1.58
65316;BMP280;51920;53.952;10.292;2022-12-07T05:05:45;100549.28;;;1.62
65316;BMP280;51920;53.952;10.292;2022-12-07T05:08:10;100550.53;;;1.56
65316;BMP280;51920;53.952;10.292;2022-12-07T05:10:36;100554.63;;;1.53
65316;BMP280;51920;53.952;10.292;2022-12-07T05:13:01;100561.06;;;1.52
65316;BMP280;51920;53.952;10.292;2022-12-07T05:15:26;100546.16;;;1.42
65316;BMP280;51920;53.952;10.292;2022-12-07T05:17:52;100556.81;;;1.51
65316;BMP280;51920;53.952;10.292;2022-12-07T05:20:17;100550.69;;;1.50
65316;BMP280;51920;53.952;10.292;2022-12-07T05:22:43;100547.56;;;1.48
65316;BMP280;51920;53.952;10.292;2022-12-07T05:25:08;100540.47;;;1.44
65316;BMP280;51920;53.952;10.292;2022-12-07T05:27:33;100541.28;;;1.53
65316;BMP280;51920;53.952;10.292;2022-12-07T05:29:59;100535.78;;;1.49
65316;BMP280;51920;53.952;10.292;2022-12-07T05:32:24;100537.19;;;1.47
65316;BMP280;51920;53.952;10.292;2022-12-07T05:34:49;100532.00;;;1.42
65316;BMP280;51920;53.952;10.292;2022-12-07T05:37:15;100539.25;;;1.41
65316;BMP280;51920;53.952;10.292;2022-12-07T05:39:40;100525.44;;;1.30
65316;BMP280;51920;53.952;10.292;2022-12-07T05:42:10;100540.47;;;1.44
65316;BMP280;51920;53.952;10.292;2022-12-07T05:44:43;100542.53;;;1.47
65316;BMP280;51920;53.952;10.292;2022-12-07T05:47:10;100545.66;;;1.49
65316;BMP280;51920;53.952;10.292;2022-12-07T05:49:35;100540.97;;;1.46
65316;BMP280;51920;53.952;10.292;2022-12-07T05:52:01;100543.66;;;1.46
65316;BMP280;51920;53.952;10.292;2022-12-07T05:54:26;100544.56;;;1.50
65316;BMP280;51920;53.952;10.292;2022-12-07T05:56:52;100527.13;;;1.44
65316;BMP280;51920;53.952;10.292;2022-12-07T05:59:17;100533.91;;;1.50
65316;BMP280;51920;53.952;10.292;2022-12-07T06:01:56;100535.63;;;1.46
65316;BMP280;51920;53.952;10.292;2022-12-07T06:04:24;100529.84;;;1.35
65316;BMP280;51920;53.952;10.292;2022-12-07T06:06:50;100535.34;;;1.30
65316;BMP280;51920;53.952;10.292;2022-12-07T06:09:15;100524.53;;;1.26
65316;BMP280;51920;53.952;10.292;2022-12-07T06:11:41;100524.81;;;1.16
65316;BMP280;51920;53.952;10.292;2022-12-07T06:14:25;100529.84;;;1.09
65316;BMP280;51920;53.952;10.292;2022-12-07T06:16:50;100529.84;;;1.09
65316;BMP280;51920;53.952;10.292;2022-12-07T06:19:16;100527.00;;;0.97
65316;BMP280;51920;53.952;10.292;2022-12-07T06:21:42;100524.66;;;0.95
65316;BMP280;51920;53.952;10.292;2022-12-07T06:24:10;100528.22;;;0.90
65316;BMP280;51920;53.952;10.292;2022-12-07T06:26:35;100523.69;;;0.82
65316;BMP280;51920;53.952;10.292;2022-12-07T06:29:01;100519.59;;;0.76
65316;BMP280;51920;53.952;10.292;2022-12-07T06:31:26;100519.56;;;0.67
65316;BMP280;51920;53.952;10.292;2022-12-07T06:33:57;100524.88;;;0.67
65316;BMP280;51920;53.952;10.292;2022-12-07T06:36:22;100527.91;;;0.66
65316;BMP280;51920;53.952;10.292;2022-12-07T06:38:48;100530.38;;;0.71
65316;BMP280;51920;53.952;10.292;2022-12-07T06:41:13;100528.50;;;0.63
65316;BMP280;51920;53.952;10.292;2022-12-07T06:43:38;100519.06;;;0.56
65316;BMP280;51920;53.952;10.292;2022-12-07T06:46:04;100517.81;;;0.54
65316;BMP280;51920;53.952;10.292;2022-12-07T06:48:29;100525.34;;;0.52
65316;BMP280;51920;53.952;10.292;2022-12-07T06:51:13;100525.66;;;0.50
65316;BMP280;51920;53.952;10.292;2022-12-07T06:53:39;100527.19;;;0.51
65316;BMP280;51920;53.952;10.292;2022-12-07T06:56:04;100524.69;;;0.46
65316;BMP280;51920;53.952;10.292;2022-12-07T06:58:30;100522.19;;;0.50
65316;BMP280;51920;53.952;10.292;2022-12-07T07:00:56;100522.94;;;0.42
65316;BMP280;51920;53.952;10.292;2022-12-07T07:03:21;100517.91;;;0.31
65316;BMP280;51920;53.952;10.292;2022-12-07T07:05:47;100531.25;;;0.40
65316;BMP280;51920;53.952;10.292;2022-12-07T07:08:13;100531.25;;;0.40
65316;BMP280;51920;53.952;10.292;2022-12-07T07:10:38;100527.00;;;0.39
65316;BMP280;51920;53.952;10.292;2022-12-07T07:13:04;100524.66;;;0.37
65316;BMP280;51920;53.952;10.292;2022-12-07T07:15:31;100532.00;;;0.41
65316;BMP280;51920;53.952;10.292;2022-12-07T07:17:56;100528.28;;;0.42
65316;BMP280;51920;53.952;10.292;2022-12-07T07:20:22;100533.59;;;0.42
65316;BMP280;51920;53.952;10.292;2022-12-07T07:22:48;100532.19;;;0.44
65316;BMP280;51920;53.952;10.292;2022-12-07T07:25:13;100524.84;;;0.41
65316;BMP280;51920;53.952;10.292;2022-12-07T07:27:38;100526.84;;;0.44
65316;BMP280;51920;53.952;10.292;2022-12-07T07:30:04;100536.28;;;0.50
65316;BMP280;51920;53.952;10.292;2022-12-07T07:32:30;100539.59;;;0.56
65316;BMP280;51920;53.952;10.292;2022-12-07T07:34:55;100533.50;;;0.55
65316;BMP280;51920;53.952;10.292;2022-12-07T07:37:20;100532.84;;;0.58
65316;BMP280;51920;53.952;10.292;2022-12-07T07:39:46;100542.94;;;0.70
65316;BMP280;51920;53.952;10.292;2022-12-07T07:42:11;100537.91;;;0.69
65316;BMP280;51920;53.952;10.292;2022-12-07T07:44:37;100544.53;;;0.71
65316;BMP280;51920;53.952;10.292;2022-12-07T07:47:03;100533.06;;;0.71
65316;BMP280;51920;53.952;10.292;2022-12-07T07:49:28;100538.72;;;0.78
65316;BMP280;51920;53.952;10.292;2022-12-07T07:51:54;100541.25;;;0.83
65316;BMP280;51920;53.952;10.292;2022-12-07T07:54:19;100546.72;;;0.87
65316;BMP280;51920;53.952;10.292;2022-12-07T07:56:44;100536.41;;;0.94
65316;BMP280;51920;53.952;10.292;2022-12-07T07:59:09;100542.38;;;1.00
65316;BMP280;51920;53.952;10.292;2022-12-07T08:01:35;100534.22;;;1.05
65316;BMP280;51920;53.952;10.292;2022-12-07T08:04:00;100529.03;;;1.08
65316;BMP280;51920;53.952;10.292;2022-12-07T08:06:26;100543.66;;;1.20
65316;BMP280;51920;53.952;10.292;2022-12-07T08:08:52;100541.00;;;1.20
65316;BMP280;51920;53.952;10.292;2022-12-07T08:11:17;100541.00;;;1.28
65316;BMP280;51920;53.952;10.292;2022-12-07T08:13:45;100544.88;;;1.40
65316;BMP280;51920;53.952;10.292;2022-12-07T08:16:11;100548.97;;;1.46
65316;BMP280;51920;53.952;10.292;2022-12-07T08:18:38;100543.66;;;1.46
65316;BMP280;51920;53.952;10.292;2022-12-07T08:21:05;100534.06;;;1.53
65316;BMP280;51920;53.952;10.292;2022-12-07T08:23:31;100530.59;;;1.53
65316;BMP280;51920;53.952;10.292;2022-12-07T08:26:01;100538.13;;;1.60
65316;BMP280;51920;53.952;10.292;2022-12-07T08:28:28;100542.06;;;1.62
65316;BMP280;51920;53.952;10.292;2022-12-07T08:30:59;100539.06;;;1.64
65316;BMP280;51920;53.952;10.292;2022-12-07T08:33:25;100550.53;;;1.64
65316;BMP280;51920;53.952;10.292;2022-12-07T08:35:51;100551.00;;;1.66
65316;BMP280;51920;53.952;10.292;2022-12-07T08:38:16;100541.13;;;1.58
65316;BMP280;51920;53.952;10.292;2022-12-07T08:40:41;100543.13;;;1.70
65316;BMP280;51920;53.952;10.292;2022-12-07T08:43:07;100540.94;;;1.72
65316;BMP280;51920;53.952;10.292;2022-12-07T08:45:32;100541.06;;;1.84
65316;BMP280;51920;53.952;10.292;2022-12-07T08:48:07;100542.59;;;1.94
65316;BMP280;51920;53.952;10.292;2022-12-07T08:50:36;100548.09;;;1.98
65316;BMP280;51920;53.952;10.292;2022-12-07T08:53:02;100544.75;;;2.09
65316;BMP280;51920;53.952;10.292;2022-12-07T08:55:29;100538.59;;;2.18
65316;BMP280;51920;53.952;10.292;2022-12-07T08:57:57;100557.97;;;2.44
65316;BMP280;51920;53.952;10.292;2022-12-07T09:00:23;100555.94;;;2.71
65316;BMP280;51920;53.952;10.292;2022-12-07T09:02:49;100553.88;;;2.68
65316;BMP280;51920;53.952;10.292;2022-12-07T09:05:15;100548.28;;;2.61
65316;BMP280;51920;53.952;10.292;2022-12-07T09:07:42;100557.19;;;2.74
65316;BMP280;51920;53.952;10.292;2022-12-07T09:10:08;100553.78;;;2.64
65316;BMP280;51920;53.952;10.292;2022-12-07T09:12:33;100550.97;;;2.61
65316;BMP280;51920;53.952;10.292;2022-12-07T09:14:59;100558.34;;;2.64
65316;BMP280;51920;53.952;10.292;2022-12-07T09:17:26;100557.44;;;2.60
65316;BMP280;51920;53.952;10.292;2022-12-07T09:19:51;100548.69;;;2.50
65316;BMP280;51920;53.952;10.292;2022-12-07T09:22:17;100555.94;;;2.71
65316;BMP280;51920;53.952;10.292;2022-12-07T09:24:42;100545.69;;;2.73
65316;BMP280;51920;53.952;10.292;2022-12-07T09:27:08;100541.91;;;2.74
65316;BMP280;51920;53.952;10.292;2022-12-07T09:29:33;100561.28;;;2.71
65316;BMP280;51920;53.952;10.292;2022-12-07T09:31:59;100554.69;;;2.68
65316;BMP280;51920;53.952;10.292;2022-12-07T09:34:24;100549.56;;;2.63
65316;BMP280;51920;53.952;10.292;2022-12-07T09:36:51;100558.34;;;2.64
65316;BMP280;51920;53.952;10.292;2022-12-07T09:39:17;100561.72;;;2.73
65316;BMP280;51920;53.952;10.292;2022-12-07T09:41:43;100555.47;;;2.69
65316;BMP280;51920;53.952;10.292;2022-12-07T09:44:16;100564.47;;;2.64
65316;BMP280;51920;53.952;10.292;2022-12-07T09:46:43;100562.16;;;2.63
65316;BMP280;51920;53.952;10.292;2022-12-07T09:49:16;100556.31;;;2.61
65316;BMP280;51920;53.952;10.292;2022-12-07T09:51:42;100557.25;;;2.65
65316;BMP280;51920;53.952;10.292;2022-12-07T09:54:08;100547.84;;;2.59
65316;BMP280;51920;53.952;10.292;2022-12-07T09:56:34;100559.38;;;2.72
65316;BMP280;51920;53.952;10.292;2022-12-07T09:59:01;100552.78;;;2.69
65316;BMP280;51920;53.952;10.292;2022-12-07T10:01:30;100560.03;;;2.68
65316;BMP280;51920;53.952;10.292;2022-12-07T10:04:12;100555.34;;;2.65
65316;BMP280;51920;53.952;10.292;2022-12-07T10:06:39;100565.38;;;2.68
65316;BMP280;51920;53.952;10.292;2022-12-07T10:09:16;100558.28;;;2.73
65316;BMP280;51920;53.952;10.292;2022-12-07T10:12:08;100569.38;;;2.83
65316;BMP280;51920;53.952;10.292;2022-12-07T10:14:39;100568.31;;;2.84
65316;BMP280;51920;53.952;10.292;2022-12-07T10:17:35;100563.72;;;2.85
65316;BMP280;51920;53.952;10.292;2022-12-07T10:20:25;100552.72;;;2.86
65316;BMP280;51920;53.952;10.292;2022-12-07T10:22:58;100553.09;;;2.97
65316;BMP280;51920;53.952;10.292;2022-12-07T10:25:28;100555.38;;;2.86
65316;BMP280;51920;53.952;10.292;2022-12-07T10:27:59;100552.66;;;2.95
65316;BMP280;51920;53.952;10.292;2022-12-07T10:30:25;100552.09;;;3.02
65316;BMP280;51920;53.952;10.292;2022-12-07T10:32:50;100555.19;;;3.13
65316;BMP280;51920;53.952;10.292;2022-12-07T10:35:27;100561.19;;;3.09
65316;BMP280;51920;53.952;10.292;2022-12-07T10:37:55;100552.50;;;3.13
65316;BMP280;51920;53.952;10.292;2022-12-07T10:40:35;100554.00;;;3.22
65316;BMP280;51920;53.952;10.292;2022-12-07T10:43:15;100540.84;;;3.29
65316;BMP280;51920;53.952;10.292;2022-12-07T10:45:57;100556.28;;;3.33
65316;BMP280;51920;53.952;10.292;2022-12-07T10:52:00;100550.00;;;3.62
65316;BMP280;51920;53.952;10.292;2022-12-07T10:54:51;100536.03;;;3.56
65316;BMP280;51920;53.952;10.292;2022-12-07T11:00:21;100534.22;;;3.48
65316;BMP280;51920;53.952;10.292;2022-12-07T11:06:01;100530.47;;;3.49
65316;BMP280;51920;53.952;10.292;2022-12-07T11:08:43;100524.19;;;3.45
65316;BMP280;51920;53.952;10.292;2022-12-07T11:11:36;100523.75;;;3.43
65316;BMP280;51920;53.952;10.292;2022-12-07T11:14:20;100522.63;;;3.44
65316;BMP280;51920;53.952;10.292;2022-12-07T11:17:00;100522.16;;;3.42
65316;BMP280;51920;53.952;10.292;2022-12-07T11:19:34;100522.97;;;3.55
65316;BMP280;51920;53.952;10.292;2022-12-07T11:24:52;100499.19;;;3.53
65316;BMP280;51920;53.952;10.292;2022-12-07T11:27:32;100515.16;;;3.50
65316;BMP280;51920;53.952;10.292;2022-12-07T11:30:23;100517.53;;;3.63
65316;BMP280;51920;53.952;10.292;2022-12-07T11:35:45;100502.34;;;3.55
65316;BMP280;51920;53.952;10.292;2022-12-07T11:38:23;100507.34;;;3.57
65316;BMP280;51920;53.952;10.292;2022-12-07T11:40:51;100504.00;;;3.47
65316;BMP280;51920;53.952;10.292;2022-12-07T11:43:26;100501.00;;;3.49
65316;BMP280;51920;53.952;10.292;2022-12-07T11:46:13;100501.66;;;3.46
65316;BMP280;51920;53.952;10.292;2022-12-07T11:49:02;100504.09;;;3.39
65316;BMP280;51920;53.952;10.292;2022-12-07T11:51:33;100499.84;;;3.38
65316;BMP280;51920;53.952;10.292;2022-12-07T11:54:05;100496.13;;;3.30
65316;BMP280;51920;53.952;10.292;2022-12-07T11:56:36;100493.13;;;3.32
65316;BMP280;51920;53.952;10.292;2022-12-07T12:01:53;100495.19;;;3.47
65316;BMP280;51920;53.952;10.292;2022-12-07T12:04:34;100492.94;;;3.37
65316;BMP280;51920;53.952;10.292;2022-12-07T12:07:06;100486.53;;;3.50
65316;BMP280;51920;53.952;10.292;2022-12-07T12:09:35;100494.56;;;3.50
65316;BMP280;51920;53.952;10.292;2022-12-07T12:12:24;100485.38;;;3.51
65316;BMP280;51920;53.952;10.292;2022-12-07T12:25:48;100487.41;;;3.21
65316;BMP280;51920;53.952;10.292;2022-12-07T12:28:41;100495.78;;;3.19
65316;BMP280;51920;53.952;10.292;2022-12-07T12:31:16;100478.50;;;3.17
65316;BMP280;51920;53.952;10.292;2022-12-07T12:33:58;100485.78;;;3.28
65316;BMP280;51920;53.952;10.292;2022-12-07T12:46:54;100475.50;;;3.18
65316;BMP280;51920;53.952;10.292;2022-12-07T12:51:50;100472.25;;;3.13
65316;BMP280;51920;53.952;10.292;2022-12-07T12:54:25;100489.97;;;3.17
65316;BMP280;51920;53.952;10.292;2022-12-07T12:56:55;100484.81;;;3.12
65316;BMP280;51920;53.952;10.292;2022-12-07T12:59:28;100491.50;;;3.06
65316;BMP280;51920;53.952;10.292;2022-12-07T13:01:58;100486.47;;;3.04
65316;BMP280;51920;53.952;10.292;2022-12-07T13:05:01;100497.16;;;3.25
65316;BMP280;51920;53.952;10.292;2022-12-07T13:12:56;100501.38;;;3.26
65316;BMP280;51920;53.952;10.292;2022-12-07T13:24:00;100477.28;;;3.26
65316;BMP280;51920;53.952;10.292;2022-12-07T13:26:36;100495.69;;;3.28
65316;BMP280;51920;53.952;10.292;2022-12-07T13:29:12;100489.59;;;3.06
65316;BMP280;51920;53.952;10.292;2022-12-07T13:31:46;100500.22;;;3.15
65316;BMP280;51920;53.952;10.292;2022-12-07T13:34:37;100496.22;;;3.21
65316;BMP280;51920;53.952;10.292;2022-12-07T13:39:35;100484.88;;;3.03
65316;BMP280;51920;53.952;10.292;2022-12-07T13:42:19;100495.72;;;3.07
65316;BMP280;51920;53.952;10.292;2022-12-07T13:44:45;100497.81;;;3.01
65316;BMP280;51920;53.952;10.292;2022-12-07T13:47:30;100507.88;;;2.83
65316;BMP280;51920;53.952;10.292;2022-12-07T13:49:57;100505.91;;;2.93
65316;BMP280;51920;53.952;10.292;2022-12-07T13:52:28;100499.25;;;2.78
65316;BMP280;51920;53.952;10.292;2022-12-07T13:55:15;100504.56;;;2.86
65316;BMP280;51920;53.952;10.292;2022-12-07T13:57:41;100497.69;;;2.77
65316;BMP280;51920;53.952;10.292;2022-12-07T14:00:18;100500.88;;;2.70
65316;BMP280;51920;53.952;10.292;2022-12-07T14:03:03;100499.72;;;2.59
65316;BMP280;51920;53.952;10.292;2022-12-07T14:05:33;100497.69;;;2.56
65316;BMP280;51920;53.952;10.292;2022-12-07T14:08:04;100495.81;;;2.56
65316;BMP280;51920;53.952;10.292;2022-12-07T14:13:33;100503.09;;;2.47
65316;BMP280;51920;53.952;10.292;2022-12-07T14:16:16;100500.63;;;2.33
65316;BMP280;51920;53.952;10.292;2022-12-07T14:18:43;100511.47;;;2.37
65316;BMP280;51920;53.952;10.292;2022-12-07T14:23:35;100505.31;;;2.36
65316;BMP280;51920;53.952;10.292;2022-12-07T14:26:11;100501.09;;;2.35
65316;BMP280;51920;53.952;10.292;2022-12-07T14:28:38;100501.78;;;2.23
65316;BMP280;51920;53.952;10.292;2022-12-07T14:31:11;100501.66;;;2.20
65316;BMP280;51920;53.952;10.292;2022-12-07T14:33:37;100484.28;;;2.05
65316;BMP280;51920;53.952;10.292;2022-12-07T14:36:02;100503.44;;;2.07
65316;BMP280;51920;53.952;10.292;2022-12-07T14:38:28;100495.75;;;1.97
65316;BMP280;51920;53.952;10.292;2022-12-07T14:40:53;100492.69;;;1.86
65316;BMP280;51920;53.952;10.292;2022-12-07T14:43:20;100503.00;;;1.96
65316;BMP280;51920;53.952;10.292;2022-12-07T14:45:45;100507.06;;;1.93
65316;BMP280;51920;53.952;10.292;2022-12-07T14:48:12;100509.47;;;1.86
65316;BMP280;51920;53.952;10.292;2022-12-07T14:50:44;100503.53;;;1.72
65316;BMP280;51920;53.952;10.292;2022-12-07T14:53:16;100496.19;;;1.78
65316;BMP280;51920;53.952;10.292;2022-12-07T14:55:42;100505.56;;;1.84
65316;BMP280;51920;53.952;10.292;2022-12-07T14:58:16;100511.41;;;1.68
65316;BMP280;51920;53.952;10.292;2022-12-07T15:00:44;100501.53;;;1.60
65316;BMP280;51920;53.952;10.292;2022-12-07T15:03:10;100499.19;;;1.59
65316;BMP280;51920;53.952;10.292;2022-12-07T15:05:38;100498.72;;;1.57
65316;BMP280;51920;53.952;10.292;2022-12-07T15:08:04;100503.28;;;1.47
65316;BMP280;51920;53.952;10.292;2022-12-07T15:10:32;100505.94;;;1.47
65316;BMP280;51920;53.952;10.292;2022-12-07T15:13:02;100499.66;;;1.43
65316;BMP280;51920;53.952;10.292;2022-12-07T15:15:51;100506.13;;;1.42
65316;BMP280;51920;53.952;10.292;2022-12-07T15:18:18;100509.25;;;1.36
65316;BMP280;51920;53.952;10.292;2022-12-07T15:20:43;100506.59;;;1.36
65316;BMP280;51920;53.952;10.292;2022-12-07T15:23:10;100499.25;;;1.32
65316;BMP280;51920;53.952;10.292;2022-12-07T15:25:35;100493.44;;;1.30
65316;BMP280;51920;53.952;10.292;2022-12-07T15:28:01;100501.91;;;1.32
65316;BMP280;51920;53.952;10.292;2022-12-07T15:30:27;100494.06;;;1.19
65316;BMP280;51920;53.952;10.292;2022-12-07T15:32:53;100501.28;;;1.18
65316;BMP280;51920;53.952;10.292;2022-12-07T15:35:20;100496.25;;;1.25
65316;BMP280;51920;53.952;10.292;2022-12-07T15:37:45;100494.88;;;1.19